sensor_id;sensor_type;location;lat;lon;timestamp;temperature;humidity
40702;DHT22;26387;50.114;8.662;2022-12-11T00:01:43;3.30;90.70
40702;DHT22;26387;50.114;8.662;2022-12-11T00:04:08;3.30;90.80
40702;DHT22;26387;50.114;8.662;2022-12-11T00:06:34;3.40;90.90
40702;DHT22;26387;50.114;8.662;2022-12-11T00:09:00;3.50;90.60
40702;DHT22;26387;50.114;8.662;2022-12-11T00:11:25;3.60;90.40
40702;DHT22;26387;50.114;8.662;2022-12-11T00:13:51;3.70;90.00
40702;DHT22;26387;50.114;8.662;2022-12-11T00:16:16;3.80;90.00
40702;DHT22;26387;50.114;8.662;2022-12-11T00:18:42;3.80;89.80
40702;DHT22;26387;50.114;8.662;2022-12-11T00:21:09;3.80;89.60
40702;DHT22;26387;50.114;8.662;2022-12-11T00:23:36;3.70;90.00
40702;DHT22;26387;50.114;8.662;2022-12-11T00:26:08;3.70;90.30
40702;DHT22;26387;50.114;8.662;2022-12-11T00:28:34;3.80;90.30
40702;DHT22;26387;50.114;8.662;2022-12-11T00:31:03;3.80;89.80
40702;DHT22;26387;50.114;8.662;2022-12-11T00:33:29;3.70;90.00
40702;DHT22;26387;50.114;8.662;2022-12-11T00:35:55;3.60;90.00
40702;DHT22;26387;50.114;8.662;2022-12-11T00:38:21;3.50;90.00
40702;DHT22;26387;50.114;8.662;2022-12-11T00:40:46;3.50;90.40
40702;DHT22;26387;50.114;8.662;2022-12-11T00:43:12;3.40;90.40
40702;DHT22;26387;50.114;8.662;2022-12-11T00:45:45;3.40;91.00
40702;DHT22;26387;50.114;8.662;2022-12-11T00:48:11;3.40;90.70
40702;DHT22;26387;50.114;8.662;2022-12-11T00:50:37;3.40;90.50
40702;DHT22;26387;50.114;8.662;2022-12-11T00:53:03;3.40;90.50
40702;DHT22;26387;50.114;8.662;2022-12-11T00:55:29;3.40;90.50
40702;DHT22;26387;50.114;8.662;2022-12-11T00:57:55;3.40;90.90
40702;DHT22;26387;50.114;8.662;2022-12-11T01:00:22;3.40;90.60
40702;DHT22;26387;50.114;8.662;2022-12-11T01:02:48;3.40;90.60
40702;DHT22;26387;50.114;8.662;2022-12-11T01:05:14;3.50;90.60
40702;DHT22;26387;50.114;8.662;2022-12-11T01:07:39;3.50;90.30
40702;DHT22;26387;50.114;8.662;2022-12-11T01:10:05;3.40;90.50
40702;DHT22;26387;50.114;8.662;2022-12-11T01:12:59;3.30;90.70
40702;DHT22;26387;50.114;8.662;2022-12-11T01:15:25;3.40;90.70
40702;DHT22;26387;50.114;8.662;2022-12-11T01:17:51;3.30;90.60
40702;DHT22;26387;50.114;8.662;2022-12-11T01:20:18;3.40;90.70
40702;DHT22;26387;50.114;8.662;2022-12-11T01:22:43;3.40;90.60
40702;DHT22;26387;50.114;8.662;2022-12-11T01:25:09;3.50;90.70
40702;DHT22;26387;50.114;8.662;2022-12-11T01:27:35;3.60;90.60
40702;DHT22;26387;50.114;8.662;2022-12-11T01:30:01;3.60;90.30
40702;DHT22;26387;50.114;8.662;2022-12-11T01:32:26;3.60;90.40
40702;DHT22;26387;50.114;8.662;2022-12-11T01:34:52;3.50;90.40
40702;DHT22;26387;50.114;8.662;2022-12-11T01:37:18;3.40;90.40
40702;DHT22;26387;50.114;8.662;2022-12-11T01:39:44;3.40;90.50
40702;DHT22;26387;50.114;8.662;2022-12-11T01:42:09;3.50;90.70
40702;DHT22;26387;50.114;8.662;2022-12-11T01:47:03;3.60;90.50
40702;DHT22;26387;50.114;8.662;2022-12-11T01:49:29;3.70;90.60
40702;DHT22;26387;50.114;8.662;2022-12-11T01:51:58;3.70;90.30
40702;DHT22;26387;50.114;8.662;2022-12-11T01:54:25;3.70;90.20
40702;DHT22;26387;50.114;8.662;2022-12-11T01:56:52;3.70;90.30
40702;DHT22;26387;50.114;8.662;2022-12-11T01:59:20;3.70;90.40
40702;DHT22;26387;50.114;8.662;2022-12-11T02:01:53;3.60;90.40
40702;DHT22;26387;50.114;8.662;2022-12-11T02:04:20;3.60;90.60
40702;DHT22;26387;50.114;8.662;2022-12-11T02:06:46;3.50;90.60
40702;DHT22;26387;50.114;8.662;2022-12-11T02:09:13;3.40;90.80
40702;DHT22;26387;50.114;8.662;2022-12-11T02:16:48;3.40;90.90
40702;DHT22;26387;50.114;8.662;2022-12-11T02:19:40;3.50;90.90
40702;DHT22;26387;50.114;8.662;2022-12-11T02:22:10;3.50;90.60
40702;DHT22;26387;50.114;8.662;2022-12-11T02:24:59;3.50;90.70
40702;DHT22;26387;50.114;8.662;2022-12-11T02:27:31;3.60;90.60
40702;DHT22;26387;50.114;8.662;2022-12-11T02:30:00;3.60;90.60
40702;DHT22;26387;50.114;8.662;2022-12-11T02:32:34;3.60;90.50
40702;DHT22;26387;50.114;8.662;2022-12-11T02:37:28;3.70;90.20
40702;DHT22;26387;50.114;8.662;2022-12-11T02:39:54;3.70;90.30
40702;DHT22;26387;50.114;8.662;2022-12-11T02:42:21;3.60;90.70
40702;DHT22;26387;50.114;8.662;2022-12-11T02:44:48;3.70;90.70
40702;DHT22;26387;50.114;8.662;2022-12-11T02:47:15;3.70;90.70
40702;DHT22;26387;50.114;8.662;2022-12-11T02:49:42;3.70;90.80
40702;DHT22;26387;50.114;8.662;2022-12-11T02:52:09;3.70;90.70
40702;DHT22;26387;50.114;8.662;2022-12-11T02:54:35;3.60;90.60
40702;DHT22;26387;50.114;8.662;2022-12-11T02:57:02;3.50;91.00
40702;DHT22;26387;50.114;8.662;2022-12-11T02:59:35;3.60;91.20
40702;DHT22;26387;50.114;8.662;2022-12-11T03:02:01;3.60;91.20
40702;DHT22;26387;50.114;8.662;2022-12-11T03:04:27;3.60;91.00
40702;DHT22;26387;50.114;8.662;2022-12-11T03:06:54;3.60;91.10
40702;DHT22;26387;50.114;8.662;2022-12-11T03:09:20;3.60;91.20
40702;DHT22;26387;50.114;8.662;2022-12-11T03:11:46;3.60;91.00
40702;DHT22;26387;50.114;8.662;2022-12-11T03:14:11;3.60;91.40
40702;DHT22;26387;50.114;8.662;2022-12-11T03:16:38;3.60;91.40
40702;DHT22;26387;50.114;8.662;2022-12-11T03:21:54;3.50;91.70
40702;DHT22;26387;50.114;8.662;2022-12-11T03:24:27;3.50;91.70
40702;DHT22;26387;50.114;8.662;2022-12-11T03:26:55;3.60;91.70
40702;DHT22;26387;50.114;8.662;2022-12-11T03:29:22;3.60;91.50
40702;DHT22;26387;50.114;8.662;2022-12-11T03:31:54;3.50;91.70
40702;DHT22;26387;50.114;8.662;2022-12-11T03:34:23;3.40;92.00
40702;DHT22;26387;50.114;8.662;2022-12-11T03:36:49;3.40;91.90
40702;DHT22;26387;50.114;8.662;2022-12-11T03:39:16;3.40;92.10
40702;DHT22;26387;50.114;8.662;2022-12-11T03:41:43;3.40;91.90
40702;DHT22;26387;50.114;8.662;2022-12-11T03:44:10;3.40;92.10
40702;DHT22;26387;50.114;8.662;2022-12-11T03:46:37;3.50;92.00
40702;DHT22;26387;50.114;8.662;2022-12-11T03:49:08;3.40;91.90
40702;DHT22;26387;50.114;8.662;2022-12-11T03:51:35;3.20;91.70
40702;DHT22;26387;50.114;8.662;2022-12-11T03:54:01;3.10;92.00
40702;DHT22;26387;50.114;8.662;2022-12-11T03:56:27;3.00;92.40
40702;DHT22;26387;50.114;8.662;2022-12-11T03:58:54;3.00;92.40
40702;DHT22;26387;50.114;8.662;2022-12-11T04:01:19;3.10;92.90
40702;DHT22;26387;50.114;8.662;2022-12-11T04:03:45;3.20;92.60
40702;DHT22;26387;50.114;8.662;2022-12-11T04:06:10;3.30;92.20
40702;DHT22;26387;50.114;8.662;2022-12-11T04:08:36;3.30;92.40
40702;DHT22;26387;50.114;8.662;2022-12-11T04:11:02;3.30;91.90
40702;DHT22;26387;50.114;8.662;2022-12-11T04:13:46;3.20;91.80
40702;DHT22;26387;50.114;8.662;2022-12-11T04:16:32;3.20;92.30
40702;DHT22;26387;50.114;8.662;2022-12-11T04:18:57;3.10;92.50
40702;DHT22;26387;50.114;8.662;2022-12-11T04:21:41;3.10;92.60
40702;DHT22;26387;50.114;8.662;2022-12-11T04:24:25;3.20;92.60
40702;DHT22;26387;50.114;8.662;2022-12-11T04:26:51;3.10;92.20
40702;DHT22;26387;50.114;8.662;2022-12-11T04:29:16;3.10;92.10
40702;DHT22;26387;50.114;8.662;2022-12-11T04:31:42;3.10;92.50
40702;DHT22;26387;50.114;8.662;2022-12-11T04:34:07;3.10;92.50
40702;DHT22;26387;50.114;8.662;2022-12-11T04:36:33;3.10;92.30
40702;DHT22;26387;50.114;8.662;2022-12-11T04:38:58;3.00;92.10
40702;DHT22;26387;50.114;8.662;2022-12-11T04:41:24;2.90;92.20
40702;DHT22;26387;50.114;8.662;2022-12-11T04:43:49;2.90;92.50
40702;DHT22;26387;50.114;8.662;2022-12-11T04:46:16;3.00;92.40
40702;DHT22;26387;50.114;8.662;2022-12-11T04:48:43;3.00;92.10
40702;DHT22;26387;50.114;8.662;2022-12-11T04:51:08;3.00;92.30
40702;DHT22;26387;50.114;8.662;2022-12-11T04:53:34;3.10;92.30
40702;DHT22;26387;50.114;8.662;2022-12-11T04:56:00;3.10;92.20
40702;DHT22;26387;50.114;8.662;2022-12-11T04:58:25;3.20;92.20
40702;DHT22;26387;50.114;8.662;2022-12-11T05:00:51;3.30;92.10
40702;DHT22;26387;50.114;8.662;2022-12-11T05:03:17;3.30;91.70
40702;DHT22;26387;50.114;8.662;2022-12-11T05:05:46;3.20;91.80
40702;DHT22;26387;50.114;8.662;2022-12-11T05:08:12;3.10;91.90
40702;DHT22;26387;50.114;8.662;2022-12-11T05:10:38;3.00;92.00
40702;DHT22;26387;50.114;8.662;2022-12-11T05:13:03;2.90;92.20
40702;DHT22;26387;50.114;8.662;2022-12-11T05:15:29;2.90;92.40
40702;DHT22;26387;50.114;8.662;2022-12-11T05:17:54;2.90;92.40
40702;DHT22;26387;50.114;8.662;2022-12-11T05:20:19;2.90;92.40
40702;DHT22;26387;50.114;8.662;2022-12-11T05:22:45;2.80;92.40
40702;DHT22;26387;50.114;8.662;2022-12-11T05:25:10;2.90;92.40
40702;DHT22;26387;50.114;8.662;2022-12-11T05:27:36;3.00;92.40
40702;DHT22;26387;50.114;8.662;2022-12-11T05:30:02;2.90;91.80
40702;DHT22;26387;50.114;8.662;2022-12-11T05:32:27;2.90;92.20
40702;DHT22;26387;50.114;8.662;2022-12-11T05:34:53;2.90;92.40
40702;DHT22;26387;50.114;8.662;2022-12-11T05:37:18;2.90;92.50
40702;DHT22;26387;50.114;8.662;2022-12-11T05:39:44;2.90;92.60
40702;DHT22;26387;50.114;8.662;2022-12-11T05:42:09;3.00;92.50
40702;DHT22;26387;50.114;8.662;2022-12-11T05:44:34;3.00;92.50
40702;DHT22;26387;50.114;8.662;2022-12-11T05:47:00;3.00;92.60
40702;DHT22;26387;50.114;8.662;2022-12-11T05:49:25;3.00;92.20
40702;DHT22;26387;50.114;8.662;2022-12-11T05:51:51;3.00;92.10
40702;DHT22;26387;50.114;8.662;2022-12-11T05:54:16;2.90;92.00
40702;DHT22;26387;50.114;8.662;2022-12-11T05:56:42;2.90;92.20
40702;DHT22;26387;50.114;8.662;2022-12-11T05:59:07;2.90;92.50
40702;DHT22;26387;50.114;8.662;2022-12-11T06:01:35;3.00;92.30
40702;DHT22;26387;50.114;8.662;2022-12-11T06:04:00;3.10;92.30
40702;DHT22;26387;50.114;8.662;2022-12-11T06:06:26;3.10;92.30
40702;DHT22;26387;50.114;8.662;2022-12-11T06:08:52;3.20;91.80
40702;DHT22;26387;50.114;8.662;2022-12-11T06:11:18;3.40;91.80
40702;DHT22;26387;50.114;8.662;2022-12-11T06:13:44;3.40;91.60
40702;DHT22;26387;50.114;8.662;2022-12-11T06:16:09;3.30;91.60
40702;DHT22;26387;50.114;8.662;2022-12-11T06:18:38;3.30;91.80
40702;DHT22;26387;50.114;8.662;2022-12-11T06:21:14;3.40;92.00
40702;DHT22;26387;50.114;8.662;2022-12-11T06:23:40;3.50;91.50
40702;DHT22;26387;50.114;8.662;2022-12-11T06:26:06;3.50;91.60
40702;DHT22;26387;50.114;8.662;2022-12-11T06:28:32;3.60;91.70
40702;DHT22;26387;50.114;8.662;2022-12-11T06:30:58;3.70;91.80
40702;DHT22;26387;50.114;8.662;2022-12-11T06:33:23;3.70;91.40
40702;DHT22;26387;50.114;8.662;2022-12-11T06:35:49;3.70;91.40
40702;DHT22;26387;50.114;8.662;2022-12-11T06:38:15;3.80;91.20
40702;DHT22;26387;50.114;8.662;2022-12-11T06:40:40;3.80;91.30
40702;DHT22;26387;50.114;8.662;2022-12-11T06:43:06;3.70;91.40
40702;DHT22;26387;50.114;8.662;2022-12-11T06:45:31;3.70;91.50
40702;DHT22;26387;50.114;8.662;2022-12-11T06:47:57;3.60;91.60
40702;DHT22;26387;50.114;8.662;2022-12-11T06:50:22;3.60;91.70
40702;DHT22;26387;50.114;8.662;2022-12-11T06:52:48;3.60;91.80
40702;DHT22;26387;50.114;8.662;2022-12-11T06:55:13;3.60;91.70
40702;DHT22;26387;50.114;8.662;2022-12-11T06:57:39;3.60;91.70
40702;DHT22;26387;50.114;8.662;2022-12-11T07:00:04;3.60;91.70
40702;DHT22;26387;50.114;8.662;2022-12-11T07:02:30;3.60;91.90
40702;DHT22;26387;50.114;8.662;2022-12-11T07:04:55;3.50;92.00
40702;DHT22;26387;50.114;8.662;2022-12-11T07:07:21;3.40;91.90
40702;DHT22;26387;50.114;8.662;2022-12-11T07:09:46;3.30;92.20
40702;DHT22;26387;50.114;8.662;2022-12-11T07:12:12;3.30;92.30
40702;DHT22;26387;50.114;8.662;2022-12-11T07:14:37;3.40;92.70
40702;DHT22;26387;50.114;8.662;2022-12-11T07:17:03;3.40;92.60
40702;DHT22;26387;50.114;8.662;2022-12-11T07:19:28;3.50;92.60
40702;DHT22;26387;50.114;8.662;2022-12-11T07:21:54;3.60;92.00
40702;DHT22;26387;50.114;8.662;2022-12-11T07:24:19;3.60;92.00
40702;DHT22;26387;50.114;8.662;2022-12-11T07:26:45;3.60;92.20
40702;DHT22;26387;50.114;8.662;2022-12-11T07:29:10;3.80;92.20
40702;DHT22;26387;50.114;8.662;2022-12-11T07:31:35;3.80;91.80
40702;DHT22;26387;50.114;8.662;2022-12-11T07:34:02;3.80;91.90
40702;DHT22;26387;50.114;8.662;2022-12-11T07:36:28;3.70;91.80
40702;DHT22;26387;50.114;8.662;2022-12-11T07:38:54;3.70;91.90
40702;DHT22;26387;50.114;8.662;2022-12-11T07:41:19;3.70;92.10
40702;DHT22;26387;50.114;8.662;2022-12-11T07:43:45;3.70;92.10
40702;DHT22;26387;50.114;8.662;2022-12-11T07:46:15;3.80;92.00
40702;DHT22;26387;50.114;8.662;2022-12-11T07:48:41;3.90;92.00
40702;DHT22;26387;50.114;8.662;2022-12-11T07:51:08;3.90;91.60
40702;DHT22;26387;50.114;8.662;2022-12-11T07:53:34;3.90;91.50
40702;DHT22;26387;50.114;8.662;2022-12-11T07:55:59;4.00;91.30
40702;DHT22;26387;50.114;8.662;2022-12-11T07:58:25;4.00;91.30
40702;DHT22;26387;50.114;8.662;2022-12-11T08:00:50;4.00;91.30
40702;DHT22;26387;50.114;8.662;2022-12-11T08:03:16;4.00;91.10
40702;DHT22;26387;50.114;8.662;2022-12-11T08:05:46;3.90;91.40
40702;DHT22;26387;50.114;8.662;2022-12-11T08:08:12;3.90;91.40
40702;DHT22;26387;50.114;8.662;2022-12-11T08:10:37;4.00;91.60
40702;DHT22;26387;50.114;8.662;2022-12-11T08:13:03;4.00;91.40
40702;DHT22;26387;50.114;8.662;2022-12-11T08:15:28;4.10;91.30
40702;DHT22;26387;50.114;8.662;2022-12-11T08:17:55;4.10;91.30
40702;DHT22;26387;50.114;8.662;2022-12-11T08:20:21;4.20;91.40
40702;DHT22;26387;50.114;8.662;2022-12-11T08:22:46;4.30;91.50
40702;DHT22;26387;50.114;8.662;2022-12-11T08:25:12;4.30;91.10
40702;DHT22;26387;50.114;8.662;2022-12-11T08:27:37;4.20;91.00
40702;DHT22;26387;50.114;8.662;2022-12-11T08:30:03;4.20;91.10
40702;DHT22;26387;50.114;8.662;2022-12-11T08:32:28;4.20;91.10
40702;DHT22;26387;50.114;8.662;2022-12-11T08:34:54;4.20;90.90
40702;DHT22;26387;50.114;8.662;2022-12-11T08:37:19;4.30;91.10
40702;DHT22;26387;50.114;8.662;2022-12-11T08:39:45;4.30;91.10
40702;DHT22;26387;50.114;8.662;2022-12-11T08:42:11;4.40;91.10
40702;DHT22;26387;50.114;8.662;2022-12-11T08:44:36;4.30;91.00
40702;DHT22;26387;50.114;8.662;2022-12-11T08:47:02;4.20;91.30
40702;DHT22;26387;50.114;8.662;2022-12-11T08:49:27;4.10;91.40
40702;DHT22;26387;50.114;8.662;2022-12-11T08:51:53;4.00;91.40
40702;DHT22;26387;50.114;8.662;2022-12-11T08:54:18;4.00;91.50
40702;DHT22;26387;50.114;8.662;2022-12-11T08:56:44;3.90;91.60
40702;DHT22;26387;50.114;8.662;2022-12-11T08:59:09;3.90;91.70
40702;DHT22;26387;50.114;8.662;2022-12-11T09:01:35;4.10;91.70
40702;DHT22;26387;50.114;8.662;2022-12-11T09:04:00;4.00;91.70
40702;DHT22;26387;50.114;8.662;2022-12-11T09:06:27;4.10;91.70
40702;DHT22;26387;50.114;8.662;2022-12-11T09:08:53;4.20;91.30
40702;DHT22;26387;50.114;8.662;2022-12-11T09:11:22;4.10;91.40
40702;DHT22;26387;50.114;8.662;2022-12-11T09:13:48;4.00;91.60
40702;DHT22;26387;50.114;8.662;2022-12-11T09:16:16;3.90;91.60
40702;DHT22;26387;50.114;8.662;2022-12-11T09:18:43;3.90;91.80
40702;DHT22;26387;50.114;8.662;2022-12-11T09:21:11;3.90;91.50
40702;DHT22;26387;50.114;8.662;2022-12-11T09:23:37;3.80;91.50
40702;DHT22;26387;50.114;8.662;2022-12-11T09:26:06;3.70;91.70
40702;DHT22;26387;50.114;8.662;2022-12-11T09:28:32;3.70;92.10
40702;DHT22;26387;50.114;8.662;2022-12-11T09:30:58;3.90;91.90
40702;DHT22;26387;50.114;8.662;2022-12-11T09:33:24;4.00;91.70
40702;DHT22;26387;50.114;8.662;2022-12-11T09:35:58;4.20;91.40
40702;DHT22;26387;50.114;8.662;2022-12-11T09:38:24;4.20;91.20
40702;DHT22;26387;50.114;8.662;2022-12-11T09:40:50;4.20;91.40
40702;DHT22;26387;50.114;8.662;2022-12-11T09:43:49;4.20;91.30
40702;DHT22;26387;50.114;8.662;2022-12-11T09:46:11;4.20;91.30
40702;DHT22;26387;50.114;8.662;2022-12-11T09:48:38;4.20;91.10
40702;DHT22;26387;50.114;8.662;2022-12-11T09:51:06;4.30;91.40
40702;DHT22;26387;50.114;8.662;2022-12-11T09:53:36;4.40;90.90
40702;DHT22;26387;50.114;8.662;2022-12-11T10:01:20;4.80;90.80
40702;DHT22;26387;50.114;8.662;2022-12-11T10:04:02;4.60;91.10
40702;DHT22;26387;50.114;8.662;2022-12-11T10:06:45;4.60;91.50
40702;DHT22;26387;50.114;8.662;2022-12-11T10:14:27;4.70;91.20
40702;DHT22;26387;50.114;8.662;2022-12-11T10:16:58;4.70;91.50
40702;DHT22;26387;50.114;8.662;2022-12-11T10:19:27;4.60;91.50
40702;DHT22;26387;50.114;8.662;2022-12-11T10:21:54;4.50;91.70
40702;DHT22;26387;50.114;8.662;2022-12-11T10:24:36;4.50;91.50
40702;DHT22;26387;50.114;8.662;2022-12-11T10:27:37;4.50;91.40
40702;DHT22;26387;50.114;8.662;2022-12-11T10:30:06;4.50;91.50
40702;DHT22;26387;50.114;8.662;2022-12-11T10:35:24;4.60;91.50
40702;DHT22;26387;50.114;8.662;2022-12-11T10:37:52;4.40;91.30
40702;DHT22;26387;50.114;8.662;2022-12-11T10:40:19;4.40;91.60
40702;DHT22;26387;50.114;8.662;2022-12-11T10:42:52;4.30;91.60
40702;DHT22;26387;50.114;8.662;2022-12-11T10:45:18;4.10;91.60
40702;DHT22;26387;50.114;8.662;2022-12-11T10:47:44;4.00;91.90
40702;DHT22;26387;50.114;8.662;2022-12-11T10:50:23;4.00;91.90
40702;DHT22;26387;50.114;8.662;2022-12-11T10:55:24;4.20;92.10
40702;DHT22;26387;50.114;8.662;2022-12-11T10:58:11;4.30;91.80
40702;DHT22;26387;50.114;8.662;2022-12-11T11:00:38;4.30;91.80
40702;DHT22;26387;50.114;8.662;2022-12-11T11:03:05;4.30;91.50
40702;DHT22;26387;50.114;8.662;2022-12-11T11:05:35;4.20;91.70
40702;DHT22;26387;50.114;8.662;2022-12-11T11:10:32;4.30;91.70
40702;DHT22;26387;50.114;8.662;2022-12-11T11:13:01;4.40;91.70
40702;DHT22;26387;50.114;8.662;2022-12-11T11:15:28;4.50;91.60
40702;DHT22;26387;50.114;8.662;2022-12-11T11:17:55;4.60;91.60
40702;DHT22;26387;50.114;8.662;2022-12-11T11:20:27;4.60;91.70
40702;DHT22;26387;50.114;8.662;2022-12-11T11:22:54;4.60;91.30
40702;DHT22;26387;50.114;8.662;2022-12-11T11:25:21;4.70;91.40
40702;DHT22;26387;50.114;8.662;2022-12-11T11:27:51;4.70;91.30
40702;DHT22;26387;50.114;8.662;2022-12-11T11:32:43;4.80;91.20
40702;DHT22;26387;50.114;8.662;2022-12-11T11:37:37;4.80;91.20
40702;DHT22;26387;50.114;8.662;2022-12-11T11:40:17;4.90;91.10
40702;DHT22;26387;50.114;8.662;2022-12-11T11:43:04;4.90;91.00
40702;DHT22;26387;50.114;8.662;2022-12-11T11:45:33;4.90;90.90
40702;DHT22;26387;50.114;8.662;2022-12-11T11:50:32;4.90;90.80
40702;DHT22;26387;50.114;8.662;2022-12-11T11:53:04;4.90;90.70
40702;DHT22;26387;50.114;8.662;2022-12-11T11:58:15;4.90;90.50
40702;DHT22;26387;50.114;8.662;2022-12-11T12:00:43;4.90;90.40
40702;DHT22;26387;50.114;8.662;2022-12-11T12:03:10;4.90;90.40
40702;DHT22;26387;50.114;8.662;2022-12-11T12:05:42;4.90;90.20
40702;DHT22;26387;50.114;8.662;2022-12-11T12:16:04;4.60;90.50
40702;DHT22;26387;50.114;8.662;2022-12-11T12:18:51;4.60;90.90
40702;DHT22;26387;50.114;8.662;2022-12-11T12:21:34;4.70;90.50
40702;DHT22;26387;50.114;8.662;2022-12-11T12:26:27;4.80;89.90
40702;DHT22;26387;50.114;8.662;2022-12-11T12:29:17;4.80;89.70
40702;DHT22;26387;50.114;8.662;2022-12-11T12:36:47;4.70;89.40
40702;DHT22;26387;50.114;8.662;2022-12-11T12:41:55;4.70;90.00
40702;DHT22;26387;50.114;8.662;2022-12-11T12:44:23;4.70;90.10
40702;DHT22;26387;50.114;8.662;2022-12-11T12:49:29;4.70;90.20
40702;DHT22;26387;50.114;8.662;2022-12-11T12:51:56;4.70;90.10
40702;DHT22;26387;50.114;8.662;2022-12-11T12:54:23;4.80;89.80
40702;DHT22;26387;50.114;8.662;2022-12-11T12:56:51;4.70;89.70
40702;DHT22;26387;50.114;8.662;2022-12-11T12:59:21;4.50;89.50
40702;DHT22;26387;50.114;8.662;2022-12-11T13:01:47;4.30;90.00
40702;DHT22;26387;50.114;8.662;2022-12-11T13:06:53;4.10;90.40
40702;DHT22;26387;50.114;8.662;2022-12-11T13:09:21;4.10;90.60
40702;DHT22;26387;50.114;8.662;2022-12-11T13:11:51;4.00;90.70
40702;DHT22;26387;50.114;8.662;2022-12-11T13:14:29;4.10;90.90
40702;DHT22;26387;50.114;8.662;2022-12-11T13:20:01;4.30;90.50
40702;DHT22;26387;50.114;8.662;2022-12-11T13:22:27;4.40;90.40
40702;DHT22;26387;50.114;8.662;2022-12-11T13:24:57;4.60;90.30
40702;DHT22;26387;50.114;8.662;2022-12-11T13:27:24;4.70;90.00
40702;DHT22;26387;50.114;8.662;2022-12-11T13:29:50;4.60;90.10
40702;DHT22;26387;50.114;8.662;2022-12-11T13:34:42;4.70;90.10
40702;DHT22;26387;50.114;8.662;2022-12-11T13:39:50;4.90;89.90
40702;DHT22;26387;50.114;8.662;2022-12-11T13:42:21;4.90;89.20
40702;DHT22;26387;50.114;8.662;2022-12-11T13:44:47;5.00;88.80
40702;DHT22;26387;50.114;8.662;2022-12-11T13:47:14;5.00;88.20
40702;DHT22;26387;50.114;8.662;2022-12-11T13:52:14;4.90;88.60
40702;DHT22;26387;50.114;8.662;2022-12-11T13:54:45;4.80;89.40
40702;DHT22;26387;50.114;8.662;2022-12-11T13:57:18;4.80;90.00
40702;DHT22;26387;50.114;8.662;2022-12-11T13:59:51;4.80;89.90
40702;DHT22;26387;50.114;8.662;2022-12-11T14:02:34;4.80;90.10
40702;DHT22;26387;50.114;8.662;2022-12-11T14:05:03;4.80;89.80
40702;DHT22;26387;50.114;8.662;2022-12-11T14:07:31;4.70;89.60
40702;DHT22;26387;50.114;8.662;2022-12-11T14:10:04;4.80;90.00
40702;DHT22;26387;50.114;8.662;2022-12-11T14:12:30;4.90;89.20
40702;DHT22;26387;50.114;8.662;2022-12-11T14:14:56;5.00;88.90
40702;DHT22;26387;50.114;8.662;2022-12-11T14:17:24;5.00;88.80
40702;DHT22;26387;50.114;8.662;2022-12-11T14:19:50;5.10;88.80
40702;DHT22;26387;50.114;8.662;2022-12-11T14:22:17;5.10;88.30
40702;DHT22;26387;50.114;8.662;2022-12-11T14:24:50;5.10;88.30
40702;DHT22;26387;50.114;8.662;2022-12-11T14:27:16;5.10;88.00
40702;DHT22;26387;50.114;8.662;2022-12-11T14:29:43;5.00;88.10
40702;DHT22;26387;50.114;8.662;2022-12-11T14:32:11;5.00;88.30
40702;DHT22;26387;50.114;8.662;2022-12-11T14:34:41;5.00;87.90
40702;DHT22;26387;50.114;8.662;2022-12-11T14:37:09;5.10;87.70
40702;DHT22;26387;50.114;8.662;2022-12-11T14:42:09;5.00;87.70
40702;DHT22;26387;50.114;8.662;2022-12-11T14:44:45;4.90;88.10
40702;DHT22;26387;50.114;8.662;2022-12-11T14:47:21;4.80;88.70
40702;DHT22;26387;50.114;8.662;2022-12-11T14:50:02;4.80;88.80
40702;DHT22;26387;50.114;8.662;2022-12-11T14:52:37;4.80;89.30
40702;DHT22;26387;50.114;8.662;2022-12-11T14:58:03;4.60;89.60
40702;DHT22;26387;50.114;8.662;2022-12-11T15:00:35;4.60;90.00
40702;DHT22;26387;50.114;8.662;2022-12-11T15:03:02;4.60;90.00
40702;DHT22;26387;50.114;8.662;2022-12-11T15:05:29;4.60;90.20
40702;DHT22;26387;50.114;8.662;2022-12-11T15:10:38;4.60;89.10
40702;DHT22;26387;50.114;8.662;2022-12-11T15:13:05;4.60;88.80
40702;DHT22;26387;50.114;8.662;2022-12-11T15:15:34;4.50;89.10
40702;DHT22;26387;50.114;8.662;2022-12-11T15:18:01;4.60;90.10
40702;DHT22;26387;50.114;8.662;2022-12-11T15:20:29;4.40;89.60
40702;DHT22;26387;50.114;8.662;2022-12-11T15:22:56;4.30;90.10
40702;DHT22;26387;50.114;8.662;2022-12-11T15:25:23;4.30;90.20
40702;DHT22;26387;50.114;8.662;2022-12-11T15:27:50;4.30;90.20
40702;DHT22;26387;50.114;8.662;2022-12-11T15:32:44;4.30;90.20
40702;DHT22;26387;50.114;8.662;2022-12-11T15:35:22;4.40;90.10
40702;DHT22;26387;50.114;8.662;2022-12-11T15:37:52;4.40;90.10
40702;DHT22;26387;50.114;8.662;2022-12-11T15:40:18;4.30;90.10
40702;DHT22;26387;50.114;8.662;2022-12-11T15:42:43;4.40;90.40
40702;DHT22;26387;50.114;8.662;2022-12-11T15:45:19;4.40;90.20
40702;DHT22;26387;50.114;8.662;2022-12-11T15:47:46;4.50;90.00
40702;DHT22;26387;50.114;8.662;2022-12-11T15:50:19;4.60;90.40
40702;DHT22;26387;50.114;8.662;2022-12-11T15:52:45;4.60;90.10
40702;DHT22;26387;50.114;8.662;2022-12-11T15:55:11;4.70;90.30
40702;DHT22;26387;50.114;8.662;2022-12-11T15:57:37;4.80;89.90
40702;DHT22;26387;50.114;8.662;2022-12-11T16:00:04;4.70;90.00
40702;DHT22;26387;50.114;8.662;2022-12-11T16:02:32;4.90;90.00
40702;DHT22;26387;50.114;8.662;2022-12-11T16:04:58;4.90;89.70
40702;DHT22;26387;50.114;8.662;2022-12-11T16:07:24;4.90;89.10
40702;DHT22;26387;50.114;8.662;2022-12-11T16:09:50;5.00;89.50
40702;DHT22;26387;50.114;8.662;2022-12-11T16:12:16;5.00;89.30
40702;DHT22;26387;50.114;8.662;2022-12-11T16:14:42;4.90;89.10
40702;DHT22;26387;50.114;8.662;2022-12-11T16:17:08;4.90;89.50
40702;DHT22;26387;50.114;8.662;2022-12-11T16:19:34;4.90;89.90
40702;DHT22;26387;50.114;8.662;2022-12-11T16:21:59;5.00;89.60
40702;DHT22;26387;50.114;8.662;2022-12-11T16:24:28;5.00;89.30
40702;DHT22;26387;50.114;8.662;2022-12-11T16:26:53;5.00;89.40
40702;DHT22;26387;50.114;8.662;2022-12-11T16:29:19;5.10;88.90
40702;DHT22;26387;50.114;8.662;2022-12-11T16:31:44;5.10;89.10
40702;DHT22;26387;50.114;8.662;2022-12-11T16:34:10;5.10;89.10
40702;DHT22;26387;50.114;8.662;2022-12-11T16:36:35;5.10;89.30
40702;DHT22;26387;50.114;8.662;2022-12-11T16:39:02;5.10;88.90
40702;DHT22;26387;50.114;8.662;2022-12-11T16:41:27;5.10;88.80
40702;DHT22;26387;50.114;8.662;2022-12-11T16:43:53;5.10;89.10
40702;DHT22;26387;50.114;8.662;2022-12-11T16:46:21;5.10;89.00
40702;DHT22;26387;50.114;8.662;2022-12-11T16:48:47;5.10;89.00
40702;DHT22;26387;50.114;8.662;2022-12-11T16:51:13;5.10;89.30
40702;DHT22;26387;50.114;8.662;2022-12-11T16:53:38;5.10;88.90
40702;DHT22;26387;50.114;8.662;2022-12-11T16:56:04;5.10;89.50
40702;DHT22;26387;50.114;8.662;2022-12-11T16:58:30;5.00;89.40
40702;DHT22;26387;50.114;8.662;2022-12-11T17:00:55;5.10;89.70
40702;DHT22;26387;50.114;8.662;2022-12-11T17:03:27;5.10;89.90
40702;DHT22;26387;50.114;8.662;2022-12-11T17:05:53;5.10;89.70
40702;DHT22;26387;50.114;8.662;2022-12-11T17:08:18;5.10;89.90
40702;DHT22;26387;50.114;8.662;2022-12-11T17:10:43;5.10;89.60
40702;DHT22;26387;50.114;8.662;2022-12-11T17:13:09;5.10;89.30
40702;DHT22;26387;50.114;8.662;2022-12-11T17:15:38;5.10;89.80